CheckWX is a tool to help pilots better visualize weather data.  It is not intended as a substitute for an official pre-flight weather briefing.

14:30:28 UTC

KJAU METAR
Campbell County Airport
Jacksboro, Tennessee, USA
Current

15 mins ago

KJAU 161415Z AUTO 19006KT 10SM FEW020 27/22 A3019 RMK A01
Observed
Jul-16 @ 14:15 UTC
Wind
  • 190° at 6 KTS
Visibility
10 SM
Flight Rules
VFR
Cloud Levels
  • Few at 2,000' AGL
Temperature
27°C / 81°F
Dewpoint
22°C / 72°F
Heat Index
29°C / 85°F
Humidity
74%
Altimeter
30.19" Hg
Pressure
1022.32 hPa
Previous

55 mins ago

KJAU 161335Z AUTO VRB03KT 10SM FEW013 27/23 A3019 RMK A01
Observed
Jul-16 @ 13:35 UTC
Wind
  • Variable at 3 KTS
Visibility
10 SM
Flight Rules
VFR
Cloud Levels
  • Few at 1,300' AGL
Temperature
27°C / 81°F
Dewpoint
23°C / 73°F
Heat Index
30°C / 86°F
Humidity
79%
Altimeter
30.19" Hg
Pressure
1022.32 hPa
Previous

1 hour ago

KJAU 161315Z AUTO 00000KT 10SM SCT009 SCT013 25/23 A3020 RMK A01
Observed
Jul-16 @ 13:15 UTC
Visibility
10 SM
Flight Rules
VFR
Cloud Levels
  • Scattered at 900' AGL
  • Scattered at 1,300' AGL
Temperature
25°C / 77°F
Dewpoint
23°C / 73°F
Humidity
89%
Altimeter
30.2" Hg
Pressure
1022.72 hPa